sensor_id;sensor_type;location;lat;lon;timestamp;P1;durP1;ratioP1;P2;durP2;ratioP2
69310;SDS011;56430;48.154;16.458;2022-11-25T00:02:11;3.63;;;1.17;;
69310;SDS011;56430;48.154;16.458;2022-11-25T00:04:38;4.30;;;1.17;;
69310;SDS011;56430;48.154;16.458;2022-11-25T00:07:05;5.50;;;0.90;;
69310;SDS011;56430;48.154;16.458;2022-11-25T00:09:32;5.53;;;1.10;;
69310;SDS011;56430;48.154;16.458;2022-11-25T00:12:00;3.80;;;1.20;;
69310;SDS011;56430;48.154;16.458;2022-11-25T00:14:27;3.63;;;0.90;;
69310;SDS011;56430;48.154;16.458;2022-11-25T00:16:55;5.20;;;1.10;;
69310;SDS011;56430;48.154;16.458;2022-11-25T00:19:25;3.45;;;1.10;;
69310;SDS011;56430;48.154;16.458;2022-11-25T00:21:53;6.43;;;1.48;;
69310;SDS011;56430;48.154;16.458;2022-11-25T00:24:20;4.10;;;1.30;;
69310;SDS011;56430;48.154;16.458;2022-11-25T00:26:47;3.17;;;1.00;;
69310;SDS011;56430;48.154;16.458;2022-11-25T00:29:14;4.30;;;1.35;;
69310;SDS011;56430;48.154;16.458;2022-11-25T00:31:41;3.78;;;0.82;;
69310;SDS011;56430;48.154;16.458;2022-11-25T00:34:11;5.05;;;1.08;;
69310;SDS011;56430;48.154;16.458;2022-11-25T00:36:40;5.63;;;1.30;;
69310;SDS011;56430;48.154;16.458;2022-11-25T00:39:08;4.82;;;1.10;;
69310;SDS011;56430;48.154;16.458;2022-11-25T00:41:37;5.93;;;1.30;;
69310;SDS011;56430;48.154;16.458;2022-11-25T00:44:22;5.60;;;1.23;;
69310;SDS011;56430;48.154;16.458;2022-11-25T00:47:01;3.72;;;1.13;;
69310;SDS011;56430;48.154;16.458;2022-11-25T00:49:30;2.70;;;0.90;;
69310;SDS011;56430;48.154;16.458;2022-11-25T00:51:57;4.57;;;0.95;;
69310;SDS011;56430;48.154;16.458;2022-11-25T00:54:25;4.28;;;1.13;;
69310;SDS011;56430;48.154;16.458;2022-11-25T00:56:52;4.43;;;0.82;;
69310;SDS011;56430;48.154;16.458;2022-11-25T00:59:19;3.42;;;1.00;;
69310;SDS011;56430;48.154;16.458;2022-11-25T01:01:46;3.67;;;1.10;;
69310;SDS011;56430;48.154;16.458;2022-11-25T01:04:13;3.22;;;1.20;;
69310;SDS011;56430;48.154;16.458;2022-11-25T01:06:42;3.90;;;1.02;;
69310;SDS011;56430;48.154;16.458;2022-11-25T01:09:10;4.88;;;1.33;;
69310;SDS011;56430;48.154;16.458;2022-11-25T01:11:38;3.42;;;0.90;;
69310;SDS011;56430;48.154;16.458;2022-11-25T01:14:05;5.30;;;1.10;;
69310;SDS011;56430;48.154;16.458;2022-11-25T01:16:33;5.63;;;1.10;;
69310;SDS011;56430;48.154;16.458;2022-11-25T01:19:01;4.03;;;1.10;;
69310;SDS011;56430;48.154;16.458;2022-11-25T01:21:29;4.97;;;0.95;;
69310;SDS011;56430;48.154;16.458;2022-11-25T01:23:59;2.78;;;0.88;;
69310;SDS011;56430;48.154;16.458;2022-11-25T01:26:26;4.03;;;1.00;;
69310;SDS011;56430;48.154;16.458;2022-11-25T01:28:55;3.30;;;1.00;;
69310;SDS011;56430;48.154;16.458;2022-11-25T01:31:24;3.25;;;1.13;;
69310;SDS011;56430;48.154;16.458;2022-11-25T01:33:55;4.32;;;1.00;;
69310;SDS011;56430;48.154;16.458;2022-11-25T01:36:23;4.25;;;0.90;;
69310;SDS011;56430;48.154;16.458;2022-11-25T01:38:52;6.07;;;1.20;;
69310;SDS011;56430;48.154;16.458;2022-11-25T01:41:22;4.15;;;1.30;;
69310;SDS011;56430;48.154;16.458;2022-11-25T01:44:04;6.57;;;0.98;;
69310;SDS011;56430;48.154;16.458;2022-11-25T01:46:43;3.20;;;1.08;;
69310;SDS011;56430;48.154;16.458;2022-11-25T01:49:23;3.85;;;1.10;;
69310;SDS011;56430;48.154;16.458;2022-11-25T01:51:53;3.90;;;1.00;;
69310;SDS011;56430;48.154;16.458;2022-11-25T01:54:23;4.30;;;1.17;;
69310;SDS011;56430;48.154;16.458;2022-11-25T01:56:54;3.67;;;1.02;;
69310;SDS011;56430;48.154;16.458;2022-11-25T01:59:23;3.05;;;0.90;;
69310;SDS011;56430;48.154;16.458;2022-11-25T02:01:50;3.35;;;1.00;;
69310;SDS011;56430;48.154;16.458;2022-11-25T02:04:18;3.70;;;1.17;;
69310;SDS011;56430;48.154;16.458;2022-11-25T02:06:46;3.05;;;1.00;;
69310;SDS011;56430;48.154;16.458;2022-11-25T02:09:17;4.47;;;1.10;;
69310;SDS011;56430;48.154;16.458;2022-11-25T02:11:44;3.67;;;0.98;;
69310;SDS011;56430;48.154;16.458;2022-11-25T02:14:13;3.03;;;0.88;;
69310;SDS011;56430;48.154;16.458;2022-11-25T02:16:43;3.13;;;1.00;;
69310;SDS011;56430;48.154;16.458;2022-11-25T02:19:14;4.60;;;1.02;;
69310;SDS011;56430;48.154;16.458;2022-11-25T02:21:46;5.22;;;1.30;;
69310;SDS011;56430;48.154;16.458;2022-11-25T02:24:17;5.78;;;1.80;;
69310;SDS011;56430;48.154;16.458;2022-11-25T02:26:52;6.97;;;1.60;;
69310;SDS011;56430;48.154;16.458;2022-11-25T02:29:19;4.80;;;1.40;;
69310;SDS011;56430;48.154;16.458;2022-11-25T02:31:47;3.67;;;1.20;;
69310;SDS011;56430;48.154;16.458;2022-11-25T02:34:17;4.22;;;1.25;;
69310;SDS011;56430;48.154;16.458;2022-11-25T02:36:44;4.50;;;1.48;;
69310;SDS011;56430;48.154;16.458;2022-11-25T02:39:11;5.25;;;1.25;;
69310;SDS011;56430;48.154;16.458;2022-11-25T02:41:39;3.00;;;0.97;;
69310;SDS011;56430;48.154;16.458;2022-11-25T02:44:11;3.85;;;1.00;;
69310;SDS011;56430;48.154;16.458;2022-11-25T02:46:39;4.95;;;1.23;;
69310;SDS011;56430;48.154;16.458;2022-11-25T02:49:06;5.32;;;1.65;;
69310;SDS011;56430;48.154;16.458;2022-11-25T02:51:33;3.92;;;1.00;;
69310;SDS011;56430;48.154;16.458;2022-11-25T02:54:00;3.43;;;1.10;;
69310;SDS011;56430;48.154;16.458;2022-11-25T02:56:29;5.32;;;1.23;;
69310;SDS011;56430;48.154;16.458;2022-11-25T02:58:57;3.30;;;1.13;;
69310;SDS011;56430;48.154;16.458;2022-11-25T03:01:26;3.90;;;0.98;;
69310;SDS011;56430;48.154;16.458;2022-11-25T03:03:54;3.97;;;1.25;;
69310;SDS011;56430;48.154;16.458;2022-11-25T03:06:21;2.67;;;0.87;;
69310;SDS011;56430;48.154;16.458;2022-11-25T03:08:48;4.18;;;0.90;;
69310;SDS011;56430;48.154;16.458;2022-11-25T03:11:15;5.38;;;1.52;;
69310;SDS011;56430;48.154;16.458;2022-11-25T03:13:43;3.85;;;1.08;;
69310;SDS011;56430;48.154;16.458;2022-11-25T03:16:10;4.15;;;1.40;;
69310;SDS011;56430;48.154;16.458;2022-11-25T03:18:38;4.30;;;1.33;;
69310;SDS011;56430;48.154;16.458;2022-11-25T03:21:06;6.78;;;1.40;;
69310;SDS011;56430;48.154;16.458;2022-11-25T03:23:33;4.68;;;1.33;;
69310;SDS011;56430;48.154;16.458;2022-11-25T03:26:03;7.13;;;1.55;;
69310;SDS011;56430;48.154;16.458;2022-11-25T03:28:31;5.30;;;1.52;;
69310;SDS011;56430;48.154;16.458;2022-11-25T03:30:58;3.93;;;1.20;;
69310;SDS011;56430;48.154;16.458;2022-11-25T03:33:25;3.65;;;1.30;;
69310;SDS011;56430;48.154;16.458;2022-11-25T03:35:54;5.18;;;1.13;;
69310;SDS011;56430;48.154;16.458;2022-11-25T03:38:21;5.30;;;1.05;;
69310;SDS011;56430;48.154;16.458;2022-11-25T03:40:48;5.53;;;1.30;;
69310;SDS011;56430;48.154;16.458;2022-11-25T03:43:15;4.60;;;1.30;;
69310;SDS011;56430;48.154;16.458;2022-11-25T03:45:43;3.78;;;0.98;;
69310;SDS011;56430;48.154;16.458;2022-11-25T03:48:10;2.90;;;1.05;;
69310;SDS011;56430;48.154;16.458;2022-11-25T03:50:37;3.72;;;1.13;;
69310;SDS011;56430;48.154;16.458;2022-11-25T03:53:06;4.38;;;0.90;;
69310;SDS011;56430;48.154;16.458;2022-11-25T03:55:33;5.97;;;1.20;;
69310;SDS011;56430;48.154;16.458;2022-11-25T03:58:00;3.38;;;0.70;;
69310;SDS011;56430;48.154;16.458;2022-11-25T04:00:27;2.60;;;0.80;;
69310;SDS011;56430;48.154;16.458;2022-11-25T04:02:55;5.93;;;1.08;;
69310;SDS011;56430;48.154;16.458;2022-11-25T04:05:22;3.38;;;0.77;;
69310;SDS011;56430;48.154;16.458;2022-11-25T04:07:49;3.27;;;0.97;;
69310;SDS011;56430;48.154;16.458;2022-11-25T04:10:18;3.83;;;0.98;;
69310;SDS011;56430;48.154;16.458;2022-11-25T04:12:45;2.58;;;0.60;;
69310;SDS011;56430;48.154;16.458;2022-11-25T04:15:12;4.07;;;0.80;;
69310;SDS011;56430;48.154;16.458;2022-11-25T04:17:39;3.67;;;0.80;;
69310;SDS011;56430;48.154;16.458;2022-11-25T04:20:07;2.77;;;0.53;;
69310;SDS011;56430;48.154;16.458;2022-11-25T04:22:35;3.65;;;0.70;;
69310;SDS011;56430;48.154;16.458;2022-11-25T04:25:05;5.68;;;0.90;;
69310;SDS011;56430;48.154;16.458;2022-11-25T04:27:36;2.58;;;0.52;;
69310;SDS011;56430;48.154;16.458;2022-11-25T04:30:06;3.13;;;0.90;;
69310;SDS011;56430;48.154;16.458;2022-11-25T04:32:37;4.07;;;1.40;;
69310;SDS011;56430;48.154;16.458;2022-11-25T04:35:05;5.80;;;1.58;;
69310;SDS011;56430;48.154;16.458;2022-11-25T04:37:33;4.10;;;1.17;;
69310;SDS011;56430;48.154;16.458;2022-11-25T04:40:00;4.22;;;0.95;;
69310;SDS011;56430;48.154;16.458;2022-11-25T04:42:27;4.82;;;1.40;;
69310;SDS011;56430;48.154;16.458;2022-11-25T04:44:59;4.37;;;1.00;;
69310;SDS011;56430;48.154;16.458;2022-11-25T04:47:27;3.90;;;0.90;;
69310;SDS011;56430;48.154;16.458;2022-11-25T04:49:54;3.03;;;0.85;;
69310;SDS011;56430;48.154;16.458;2022-11-25T04:52:21;4.25;;;0.80;;
69310;SDS011;56430;48.154;16.458;2022-11-25T04:54:49;5.30;;;1.13;;
69310;SDS011;56430;48.154;16.458;2022-11-25T04:57:16;5.13;;;1.00;;
69310;SDS011;56430;48.154;16.458;2022-11-25T04:59:43;4.75;;;0.98;;
69310;SDS011;56430;48.154;16.458;2022-11-25T05:02:12;4.20;;;1.15;;
69310;SDS011;56430;48.154;16.458;2022-11-25T05:04:41;3.63;;;0.73;;
69310;SDS011;56430;48.154;16.458;2022-11-25T05:10:15;6.90;;;1.23;;
69310;SDS011;56430;48.154;16.458;2022-11-25T05:12:43;4.97;;;1.00;;
69310;SDS011;56430;48.154;16.458;2022-11-25T05:15:13;3.47;;;0.90;;
69310;SDS011;56430;48.154;16.458;2022-11-25T05:17:41;4.28;;;0.80;;
69310;SDS011;56430;48.154;16.458;2022-11-25T05:20:09;3.65;;;0.80;;
69310;SDS011;56430;48.154;16.458;2022-11-25T05:22:37;2.57;;;0.97;;
69310;SDS011;56430;48.154;16.458;2022-11-25T05:25:04;3.80;;;0.80;;
69310;SDS011;56430;48.154;16.458;2022-11-25T05:27:31;4.93;;;0.85;;
69310;SDS011;56430;48.154;16.458;2022-11-25T05:29:58;5.13;;;1.17;;
69310;SDS011;56430;48.154;16.458;2022-11-25T05:32:26;4.25;;;1.00;;
69310;SDS011;56430;48.154;16.458;2022-11-25T05:34:54;7.47;;;1.17;;
69310;SDS011;56430;48.154;16.458;2022-11-25T05:37:21;4.15;;;1.25;;
69310;SDS011;56430;48.154;16.458;2022-11-25T05:39:49;4.03;;;0.82;;
69310;SDS011;56430;48.154;16.458;2022-11-25T05:42:16;3.95;;;0.80;;
69310;SDS011;56430;48.154;16.458;2022-11-25T05:44:43;4.43;;;0.80;;
69310;SDS011;56430;48.154;16.458;2022-11-25T05:47:10;4.67;;;0.70;;
69310;SDS011;56430;48.154;16.458;2022-11-25T05:49:37;4.35;;;0.70;;
69310;SDS011;56430;48.154;16.458;2022-11-25T05:52:06;5.88;;;1.02;;
69310;SDS011;56430;48.154;16.458;2022-11-25T05:54:33;4.65;;;1.25;;
69310;SDS011;56430;48.154;16.458;2022-11-25T05:57:00;4.85;;;1.80;;
69310;SDS011;56430;48.154;16.458;2022-11-25T05:59:28;6.57;;;2.20;;
69310;SDS011;56430;48.154;16.458;2022-11-25T06:01:55;3.35;;;1.30;;
69310;SDS011;56430;48.154;16.458;2022-11-25T06:04:25;5.07;;;1.50;;
69310;SDS011;56430;48.154;16.458;2022-11-25T06:06:52;9.38;;;1.80;;
69310;SDS011;56430;48.154;16.458;2022-11-25T06:09:21;5.53;;;1.35;;
69310;SDS011;56430;48.154;16.458;2022-11-25T06:11:48;4.53;;;1.10;;
69310;SDS011;56430;48.154;16.458;2022-11-25T06:14:16;5.32;;;1.30;;
69310;SDS011;56430;48.154;16.458;2022-11-25T06:16:43;6.10;;;1.50;;
69310;SDS011;56430;48.154;16.458;2022-11-25T06:19:10;3.97;;;1.27;;
69310;SDS011;56430;48.154;16.458;2022-11-25T06:21:37;4.95;;;1.40;;
69310;SDS011;56430;48.154;16.458;2022-11-25T06:24:05;6.20;;;1.43;;
69310;SDS011;56430;48.154;16.458;2022-11-25T06:26:34;5.22;;;1.00;;
69310;SDS011;56430;48.154;16.458;2022-11-25T06:29:02;5.03;;;1.00;;
69310;SDS011;56430;48.154;16.458;2022-11-25T06:31:29;6.55;;;0.90;;
69310;SDS011;56430;48.154;16.458;2022-11-25T06:33:56;4.03;;;0.93;;
69310;SDS011;56430;48.154;16.458;2022-11-25T06:36:26;5.33;;;1.17;;
69310;SDS011;56430;48.154;16.458;2022-11-25T06:38:53;3.13;;;0.80;;
69310;SDS011;56430;48.154;16.458;2022-11-25T06:41:21;7.45;;;1.48;;
69310;SDS011;56430;48.154;16.458;2022-11-25T06:43:49;8.38;;;1.50;;
69310;SDS011;56430;48.154;16.458;2022-11-25T06:46:17;4.05;;;0.90;;
69310;SDS011;56430;48.154;16.458;2022-11-25T06:48:45;4.90;;;1.50;;
69310;SDS011;56430;48.154;16.458;2022-11-25T06:51:12;4.78;;;1.10;;
69310;SDS011;56430;48.154;16.458;2022-11-25T06:53:40;4.93;;;1.30;;
69310;SDS011;56430;48.154;16.458;2022-11-25T06:56:10;6.65;;;1.65;;
69310;SDS011;56430;48.154;16.458;2022-11-25T06:58:38;5.03;;;1.63;;
69310;SDS011;56430;48.154;16.458;2022-11-25T07:01:11;5.90;;;1.23;;
69310;SDS011;56430;48.154;16.458;2022-11-25T07:03:39;10.27;;;1.48;;
69310;SDS011;56430;48.154;16.458;2022-11-25T07:06:06;6.15;;;1.40;;
69310;SDS011;56430;48.154;16.458;2022-11-25T07:08:34;6.03;;;1.02;;
69310;SDS011;56430;48.154;16.458;2022-11-25T07:11:02;6.20;;;1.48;;
69310;SDS011;56430;48.154;16.458;2022-11-25T07:13:31;6.03;;;1.50;;
69310;SDS011;56430;48.154;16.458;2022-11-25T07:15:59;5.70;;;1.38;;
69310;SDS011;56430;48.154;16.458;2022-11-25T07:18:29;7.22;;;1.52;;
69310;SDS011;56430;48.154;16.458;2022-11-25T07:21:01;6.32;;;1.60;;
69310;SDS011;56430;48.154;16.458;2022-11-25T07:23:30;4.38;;;1.38;;
69310;SDS011;56430;48.154;16.458;2022-11-25T07:26:00;5.20;;;1.93;;
69310;SDS011;56430;48.154;16.458;2022-11-25T07:28:28;4.47;;;1.13;;
69310;SDS011;56430;48.154;16.458;2022-11-25T07:30:55;7.05;;;1.40;;
69310;SDS011;56430;48.154;16.458;2022-11-25T07:33:22;6.45;;;1.60;;
69310;SDS011;56430;48.154;16.458;2022-11-25T07:35:51;6.30;;;1.35;;
69310;SDS011;56430;48.154;16.458;2022-11-25T07:38:18;6.03;;;1.60;;
69310;SDS011;56430;48.154;16.458;2022-11-25T07:40:45;8.32;;;1.48;;
69310;SDS011;56430;48.154;16.458;2022-11-25T07:43:15;8.48;;;1.73;;
69310;SDS011;56430;48.154;16.458;2022-11-25T07:45:42;9.38;;;1.65;;
69310;SDS011;56430;48.154;16.458;2022-11-25T07:48:12;7.53;;;1.55;;
69310;SDS011;56430;48.154;16.458;2022-11-25T07:50:39;3.87;;;1.07;;
69310;SDS011;56430;48.154;16.458;2022-11-25T07:53:10;6.38;;;1.52;;
69310;SDS011;56430;48.154;16.458;2022-11-25T07:55:40;4.07;;;1.50;;
69310;SDS011;56430;48.154;16.458;2022-11-25T07:58:07;5.78;;;2.08;;
69310;SDS011;56430;48.154;16.458;2022-11-25T08:00:34;6.07;;;2.00;;
69310;SDS011;56430;48.154;16.458;2022-11-25T08:03:02;5.50;;;2.20;;
69310;SDS011;56430;48.154;16.458;2022-11-25T08:05:31;7.05;;;2.00;;
69310;SDS011;56430;48.154;16.458;2022-11-25T08:07:58;6.88;;;1.90;;
69310;SDS011;56430;48.154;16.458;2022-11-25T08:10:27;5.03;;;1.65;;
69310;SDS011;56430;48.154;16.458;2022-11-25T08:12:54;5.65;;;1.73;;
69310;SDS011;56430;48.154;16.458;2022-11-25T08:15:22;4.93;;;2.00;;
69310;SDS011;56430;48.154;16.458;2022-11-25T08:17:49;5.65;;;2.00;;
69310;SDS011;56430;48.154;16.458;2022-11-25T08:20:17;9.07;;;2.45;;
69310;SDS011;56430;48.154;16.458;2022-11-25T08:22:44;7.53;;;2.60;;
69310;SDS011;56430;48.154;16.458;2022-11-25T08:25:14;7.68;;;2.55;;
69310;SDS011;56430;48.154;16.458;2022-11-25T08:27:43;6.50;;;2.37;;
69310;SDS011;56430;48.154;16.458;2022-11-25T08:30:12;4.35;;;1.98;;
69310;SDS011;56430;48.154;16.458;2022-11-25T08:32:39;7.43;;;2.20;;
69310;SDS011;56430;48.154;16.458;2022-11-25T08:35:07;6.05;;;1.92;;
69310;SDS011;56430;48.154;16.458;2022-11-25T08:37:34;7.85;;;2.20;;
69310;SDS011;56430;48.154;16.458;2022-11-25T08:40:01;4.17;;;1.50;;
69310;SDS011;56430;48.154;16.458;2022-11-25T08:42:29;6.13;;;2.00;;
69310;SDS011;56430;48.154;16.458;2022-11-25T08:44:58;7.80;;;2.00;;
69310;SDS011;56430;48.154;16.458;2022-11-25T08:47:26;4.28;;;1.50;;
69310;SDS011;56430;48.154;16.458;2022-11-25T08:49:53;6.82;;;2.00;;
69310;SDS011;56430;48.154;16.458;2022-11-25T08:52:21;5.17;;;1.57;;
69310;SDS011;56430;48.154;16.458;2022-11-25T08:54:49;4.68;;;1.55;;
69310;SDS011;56430;48.154;16.458;2022-11-25T08:57:18;5.30;;;2.00;;
69310;SDS011;56430;48.154;16.458;2022-11-25T08:59:46;4.95;;;1.42;;
69310;SDS011;56430;48.154;16.458;2022-11-25T09:02:15;4.82;;;1.63;;
69310;SDS011;56430;48.154;16.458;2022-11-25T09:04:43;11.70;;;1.90;;
69310;SDS011;56430;48.154;16.458;2022-11-25T09:07:10;6.80;;;1.80;;
69310;SDS011;56430;48.154;16.458;2022-11-25T09:09:37;5.40;;;2.30;;
69310;SDS011;56430;48.154;16.458;2022-11-25T09:12:04;6.00;;;2.20;;
69310;SDS011;56430;48.154;16.458;2022-11-25T09:14:32;15.50;;;2.28;;
69310;SDS011;56430;48.154;16.458;2022-11-25T09:16:59;5.97;;;2.50;;
69310;SDS011;56430;48.154;16.458;2022-11-25T09:19:29;7.30;;;2.70;;
69310;SDS011;56430;48.154;16.458;2022-11-25T09:21:57;4.18;;;2.00;;
69310;SDS011;56430;48.154;16.458;2022-11-25T09:24:24;5.85;;;2.33;;
69310;SDS011;56430;48.154;16.458;2022-11-25T09:26:51;6.18;;;1.92;;
69310;SDS011;56430;48.154;16.458;2022-11-25T09:29:19;5.20;;;1.80;;
69310;SDS011;56430;48.154;16.458;2022-11-25T09:31:46;5.27;;;2.17;;
69310;SDS011;56430;48.154;16.458;2022-11-25T09:34:13;5.65;;;2.05;;
69310;SDS011;56430;48.154;16.458;2022-11-25T09:36:43;6.57;;;1.80;;
69310;SDS011;56430;48.154;16.458;2022-11-25T09:39:11;5.22;;;1.60;;
69310;SDS011;56430;48.154;16.458;2022-11-25T09:41:42;5.07;;;1.80;;
69310;SDS011;56430;48.154;16.458;2022-11-25T09:44:38;4.77;;;1.50;;
69310;SDS011;56430;48.154;16.458;2022-11-25T09:50:16;5.47;;;1.70;;
69310;SDS011;56430;48.154;16.458;2022-11-25T09:52:50;6.47;;;2.00;;
69310;SDS011;56430;48.154;16.458;2022-11-25T09:55:22;3.70;;;1.45;;
69310;SDS011;56430;48.154;16.458;2022-11-25T09:57:53;5.55;;;1.50;;
69310;SDS011;56430;48.154;16.458;2022-11-25T10:00:23;4.63;;;1.83;;
69310;SDS011;56430;48.154;16.458;2022-11-25T10:02:54;6.82;;;1.70;;
69310;SDS011;56430;48.154;16.458;2022-11-25T10:05:28;5.75;;;2.00;;
69310;SDS011;56430;48.154;16.458;2022-11-25T10:08:06;6.32;;;1.85;;
69310;SDS011;56430;48.154;16.458;2022-11-25T10:10:38;5.80;;;1.50;;
69310;SDS011;56430;48.154;16.458;2022-11-25T10:13:10;6.30;;;1.50;;
69310;SDS011;56430;48.154;16.458;2022-11-25T10:15:42;4.40;;;1.80;;
69310;SDS011;56430;48.154;16.458;2022-11-25T10:18:12;7.03;;;1.70;;
69310;SDS011;56430;48.154;16.458;2022-11-25T10:20:43;8.18;;;2.03;;
69310;SDS011;56430;48.154;16.458;2022-11-25T10:23:18;4.07;;;1.60;;
69310;SDS011;56430;48.154;16.458;2022-11-25T10:25:49;6.47;;;2.10;;
69310;SDS011;56430;48.154;16.458;2022-11-25T10:28:19;7.65;;;2.05;;
69310;SDS011;56430;48.154;16.458;2022-11-25T10:30:49;5.88;;;1.73;;
69310;SDS011;56430;48.154;16.458;2022-11-25T10:33:20;8.13;;;1.95;;
69310;SDS011;56430;48.154;16.458;2022-11-25T10:35:50;5.90;;;1.63;;
69310;SDS011;56430;48.154;16.458;2022-11-25T10:38:22;5.07;;;1.43;;
69310;SDS011;56430;48.154;16.458;2022-11-25T10:40:52;6.82;;;1.45;;
69310;SDS011;56430;48.154;16.458;2022-11-25T10:43:20;4.90;;;1.88;;
69310;SDS011;56430;48.154;16.458;2022-11-25T10:45:49;7.57;;;2.25;;
69310;SDS011;56430;48.154;16.458;2022-11-25T10:48:22;6.45;;;1.52;;
69310;SDS011;56430;48.154;16.458;2022-11-25T10:51:02;8.27;;;2.00;;
69310;SDS011;56430;48.154;16.458;2022-11-25T10:53:37;8.48;;;2.00;;
69310;SDS011;56430;48.154;16.458;2022-11-25T10:56:09;4.97;;;1.20;;
69310;SDS011;56430;48.154;16.458;2022-11-25T10:58:38;6.43;;;1.67;;
69310;SDS011;56430;48.154;16.458;2022-11-25T11:01:12;5.00;;;1.67;;
69310;SDS011;56430;48.154;16.458;2022-11-25T11:03:42;12.40;;;1.07;;
69310;SDS011;56430;48.154;16.458;2022-11-25T11:06:29;4.10;;;0.80;;
69310;SDS011;56430;48.154;16.458;2022-11-25T11:08:59;4.50;;;1.08;;
69310;SDS011;56430;48.154;16.458;2022-11-25T11:11:26;3.75;;;1.10;;
69310;SDS011;56430;48.154;16.458;2022-11-25T11:14:05;4.13;;;0.80;;
69310;SDS011;56430;48.154;16.458;2022-11-25T11:16:40;2.97;;;0.90;;
69310;SDS011;56430;48.154;16.458;2022-11-25T11:19:22;7.05;;;1.27;;
69310;SDS011;56430;48.154;16.458;2022-11-25T11:21:53;4.70;;;0.93;;
69310;SDS011;56430;48.154;16.458;2022-11-25T11:24:24;7.88;;;1.20;;
69310;SDS011;56430;48.154;16.458;2022-11-25T11:27:04;4.78;;;1.20;;
69310;SDS011;56430;48.154;16.458;2022-11-25T11:29:32;5.43;;;0.70;;
69310;SDS011;56430;48.154;16.458;2022-11-25T11:32:00;4.05;;;0.80;;
69310;SDS011;56430;48.154;16.458;2022-11-25T11:34:35;4.85;;;1.10;;
69310;SDS011;56430;48.154;16.458;2022-11-25T11:37:15;5.13;;;1.10;;
69310;SDS011;56430;48.154;16.458;2022-11-25T11:39:53;6.95;;;1.20;;
69310;SDS011;56430;48.154;16.458;2022-11-25T11:42:28;8.90;;;1.30;;
69310;SDS011;56430;48.154;16.458;2022-11-25T11:45:04;8.02;;;1.02;;
69310;SDS011;56430;48.154;16.458;2022-11-25T11:47:42;5.95;;;1.00;;
69310;SDS011;56430;48.154;16.458;2022-11-25T11:50:22;5.88;;;1.10;;
69310;SDS011;56430;48.154;16.458;2022-11-25T11:52:54;6.07;;;1.38;;
69310;SDS011;56430;48.154;16.458;2022-11-25T11:58:17;7.68;;;1.70;;
69310;SDS011;56430;48.154;16.458;2022-11-25T12:00:53;5.72;;;1.40;;
69310;SDS011;56430;48.154;16.458;2022-11-25T12:03:26;5.07;;;1.95;;
69310;SDS011;56430;48.154;16.458;2022-11-25T12:05:54;4.43;;;1.33;;
69310;SDS011;56430;48.154;16.458;2022-11-25T12:08:25;8.13;;;1.50;;
69310;SDS011;56430;48.154;16.458;2022-11-25T12:10:57;8.05;;;1.42;;
69310;SDS011;56430;48.154;16.458;2022-11-25T12:13:31;5.53;;;1.40;;
69310;SDS011;56430;48.154;16.458;2022-11-25T12:16:03;8.75;;;1.50;;
69310;SDS011;56430;48.154;16.458;2022-11-25T12:18:40;7.65;;;1.60;;
69310;SDS011;56430;48.154;16.458;2022-11-25T12:21:12;6.43;;;1.70;;
69310;SDS011;56430;48.154;16.458;2022-11-25T12:23:54;8.25;;;1.80;;
69310;SDS011;56430;48.154;16.458;2022-11-25T12:26:29;9.95;;;1.90;;
69310;SDS011;56430;48.154;16.458;2022-11-25T12:29:04;12.52;;;2.08;;
69310;SDS011;56430;48.154;16.458;2022-11-25T12:31:36;8.95;;;1.77;;
69310;SDS011;56430;48.154;16.458;2022-11-25T12:34:06;6.33;;;1.70;;
69310;SDS011;56430;48.154;16.458;2022-11-25T12:36:38;13.63;;;1.75;;
69310;SDS011;56430;48.154;16.458;2022-11-25T12:39:10;8.80;;;1.55;;
69310;SDS011;56430;48.154;16.458;2022-11-25T12:41:46;10.48;;;1.40;;
69310;SDS011;56430;48.154;16.458;2022-11-25T12:44:17;7.25;;;1.10;;
69310;SDS011;56430;48.154;16.458;2022-11-25T12:46:47;4.43;;;1.53;;
69310;SDS011;56430;48.154;16.458;2022-11-25T12:49:17;7.32;;;1.80;;
69310;SDS011;56430;48.154;16.458;2022-11-25T12:57:41;5.78;;;1.27;;
69310;SDS011;56430;48.154;16.458;2022-11-25T13:00:34;4.43;;;1.10;;
69310;SDS011;56430;48.154;16.458;2022-11-25T13:03:23;7.15;;;0.90;;
69310;SDS011;56430;48.154;16.458;2022-11-25T13:08:58;8.30;;;0.80;;
69310;SDS011;56430;48.154;16.458;2022-11-25T13:11:32;8.10;;;1.10;;
69310;SDS011;56430;48.154;16.458;2022-11-25T13:14:17;7.23;;;0.93;;
69310;SDS011;56430;48.154;16.458;2022-11-25T13:16:50;4.65;;;0.63;;
69310;SDS011;56430;48.154;16.458;2022-11-25T13:19:18;3.00;;;0.60;;
69310;SDS011;56430;48.154;16.458;2022-11-25T13:21:58;5.70;;;1.73;;
69310;SDS011;56430;48.154;16.458;2022-11-25T13:24:30;5.95;;;1.05;;
69310;SDS011;56430;48.154;16.458;2022-11-25T13:26:59;6.97;;;1.00;;
69310;SDS011;56430;48.154;16.458;2022-11-25T13:32:27;3.60;;;0.60;;
69310;SDS011;56430;48.154;16.458;2022-11-25T13:41:21;4.70;;;0.77;;
69310;SDS011;56430;48.154;16.458;2022-11-25T13:43:50;5.20;;;0.70;;
69310;SDS011;56430;48.154;16.458;2022-11-25T13:46:27;5.50;;;0.50;;
69310;SDS011;56430;48.154;16.458;2022-11-25T13:48:58;3.55;;;0.60;;
69310;SDS011;56430;48.154;16.458;2022-11-25T13:51:25;4.00;;;0.45;;
69310;SDS011;56430;48.154;16.458;2022-11-25T13:53:53;4.40;;;0.77;;
69310;SDS011;56430;48.154;16.458;2022-11-25T13:56:24;7.07;;;0.75;;
69310;SDS011;56430;48.154;16.458;2022-11-25T14:01:53;4.28;;;0.85;;
69310;SDS011;56430;48.154;16.458;2022-11-25T14:04:23;4.20;;;0.70;;
69310;SDS011;56430;48.154;16.458;2022-11-25T14:07:06;4.13;;;0.63;;
69310;SDS011;56430;48.154;16.458;2022-11-25T14:09:50;4.10;;;0.90;;
69310;SDS011;56430;48.154;16.458;2022-11-25T14:15:24;4.13;;;0.63;;
69310;SDS011;56430;48.154;16.458;2022-11-25T14:21:11;4.17;;;0.70;;
69310;SDS011;56430;48.154;16.458;2022-11-25T14:23:45;7.05;;;1.13;;
69310;SDS011;56430;48.154;16.458;2022-11-25T14:26:22;5.53;;;0.80;;
69310;SDS011;56430;48.154;16.458;2022-11-25T14:28:53;14.13;;;1.48;;
69310;SDS011;56430;48.154;16.458;2022-11-25T14:31:23;5.55;;;1.27;;
69310;SDS011;56430;48.154;16.458;2022-11-25T14:33:57;7.43;;;0.83;;
69310;SDS011;56430;48.154;16.458;2022-11-25T14:36:29;8.18;;;0.88;;
69310;SDS011;56430;48.154;16.458;2022-11-25T14:39:01;5.50;;;1.15;;
69310;SDS011;56430;48.154;16.458;2022-11-25T14:41:31;4.30;;;1.00;;
69310;SDS011;56430;48.154;16.458;2022-11-25T14:44:02;6.47;;;1.00;;
69310;SDS011;56430;48.154;16.458;2022-11-25T14:46:31;9.07;;;1.13;;
69310;SDS011;56430;48.154;16.458;2022-11-25T14:48:59;8.30;;;1.13;;
69310;SDS011;56430;48.154;16.458;2022-11-25T14:51:32;4.68;;;0.77;;
69310;SDS011;56430;48.154;16.458;2022-11-25T14:54:00;5.20;;;0.95;;
69310;SDS011;56430;48.154;16.458;2022-11-25T14:56:28;7.25;;;1.25;;
69310;SDS011;56430;48.154;16.458;2022-11-25T14:58:57;8.47;;;1.20;;
69310;SDS011;56430;48.154;16.458;2022-11-25T15:01:25;8.73;;;1.30;;
69310;SDS011;56430;48.154;16.458;2022-11-25T15:04:01;8.48;;;1.52;;
69310;SDS011;56430;48.154;16.458;2022-11-25T15:06:33;6.32;;;1.35;;
69310;SDS011;56430;48.154;16.458;2022-11-25T15:09:02;15.38;;;1.58;;
69310;SDS011;56430;48.154;16.458;2022-11-25T15:11:30;7.87;;;1.47;;
69310;SDS011;56430;48.154;16.458;2022-11-25T15:14:00;4.85;;;1.35;;
69310;SDS011;56430;48.154;16.458;2022-11-25T15:16:31;9.95;;;1.52;;
69310;SDS011;56430;48.154;16.458;2022-11-25T15:19:00;6.95;;;1.38;;
69310;SDS011;56430;48.154;16.458;2022-11-25T15:21:29;7.25;;;1.70;;
69310;SDS011;56430;48.154;16.458;2022-11-25T15:23:59;5.67;;;1.63;;
69310;SDS011;56430;48.154;16.458;2022-11-25T15:26:28;10.90;;;2.03;;